sensor_id;sensor_type;location;lat;lon;timestamp;temperature;humidity
75985;DHT22;65033;44.660;37.758;2023-10-19T00:00:40;9.23;59.27
75985;DHT22;65033;44.660;37.758;2023-10-19T00:01:58;9.22;58.74
75985;DHT22;65033;44.660;37.758;2023-10-19T00:03:10;9.25;58.80
75985;DHT22;65033;44.660;37.758;2023-10-19T00:04:25;9.25;58.57
75985;DHT22;65033;44.660;37.758;2023-10-19T00:05:35;9.29;58.64
75985;DHT22;65033;44.660;37.758;2023-10-19T00:06:42;9.27;58.67
75985;DHT22;65033;44.660;37.758;2023-10-19T00:07:50;9.27;58.61
75985;DHT22;65033;44.660;37.758;2023-10-19T00:09:04;9.26;58.57
75985;DHT22;65033;44.660;37.758;2023-10-19T00:10:24;9.29;58.35
75985;DHT22;65033;44.660;37.758;2023-10-19T00:11:39;9.30;58.23
75985;DHT22;65033;44.660;37.758;2023-10-19T00:12:49;9.29;58.33
75985;DHT22;65033;44.660;37.758;2023-10-19T00:14:06;9.25;58.48
75985;DHT22;65033;44.660;37.758;2023-10-19T00:15:26;9.23;58.55
75985;DHT22;65033;44.660;37.758;2023-10-19T00:16:40;9.22;58.81
75985;DHT22;65033;44.660;37.758;2023-10-19T00:18:08;9.21;58.59
75985;DHT22;65033;44.660;37.758;2023-10-19T00:19:21;9.19;58.58
75985;DHT22;65033;44.660;37.758;2023-10-19T00:20:25;9.17;58.91
75985;DHT22;65033;44.660;37.758;2023-10-19T00:21:45;9.15;58.58
75985;DHT22;65033;44.660;37.758;2023-10-19T00:23:06;9.17;58.80
75985;DHT22;65033;44.660;37.758;2023-10-19T00:24:15;9.17;58.86
75985;DHT22;65033;44.660;37.758;2023-10-19T00:25:26;9.19;58.73
75985;DHT22;65033;44.660;37.758;2023-10-19T00:26:34;9.25;58.45
75985;DHT22;65033;44.660;37.758;2023-10-19T00:28:02;9.33;58.05
75985;DHT22;65033;44.660;37.758;2023-10-19T00:29:15;9.41;58.12
75985;DHT22;65033;44.660;37.758;2023-10-19T00:30:36;9.45;57.71
75985;DHT22;65033;44.660;37.758;2023-10-19T00:31:50;9.48;57.55
75985;DHT22;65033;44.660;37.758;2023-10-19T00:33:11;9.50;57.18
75985;DHT22;65033;44.660;37.758;2023-10-19T00:34:28;9.53;57.76
75985;DHT22;65033;44.660;37.758;2023-10-19T00:35:34;9.53;57.25
75985;DHT22;65033;44.660;37.758;2023-10-19T00:36:44;9.59;57.17
75985;DHT22;65033;44.660;37.758;2023-10-19T00:37:59;9.63;56.44
75985;DHT22;65033;44.660;37.758;2023-10-19T00:39:27;9.70;56.52
75985;DHT22;65033;44.660;37.758;2023-10-19T00:40:31;9.69;56.54
75985;DHT22;65033;44.660;37.758;2023-10-19T00:41:39;9.74;56.48
75985;DHT22;65033;44.660;37.758;2023-10-19T00:42:46;9.78;56.02
75985;DHT22;65033;44.660;37.758;2023-10-19T00:44:01;9.81;56.44
75985;DHT22;65033;44.660;37.758;2023-10-19T00:45:21;9.82;56.39
75985;DHT22;65033;44.660;37.758;2023-10-19T00:46:30;9.83;56.23
75985;DHT22;65033;44.660;37.758;2023-10-19T00:47:46;9.79;56.35
75985;DHT22;65033;44.660;37.758;2023-10-19T00:48:56;9.79;56.68
75985;DHT22;65033;44.660;37.758;2023-10-19T00:50:05;9.77;56.56
75985;DHT22;65033;44.660;37.758;2023-10-19T00:51:40;9.75;56.39
75985;DHT22;65033;44.660;37.758;2023-10-19T00:53:28;9.78;56.00
75985;DHT22;65033;44.660;37.758;2023-10-19T00:54:39;9.82;55.94
75985;DHT22;65033;44.660;37.758;2023-10-19T00:55:52;9.85;55.69
75985;DHT22;65033;44.660;37.758;2023-10-19T00:57:03;9.89;55.24
75985;DHT22;65033;44.660;37.758;2023-10-19T00:58:20;9.94;54.84
75985;DHT22;65033;44.660;37.758;2023-10-19T00:59:56;10.01;54.51
75985;DHT22;65033;44.660;37.758;2023-10-19T01:01:07;10.05;54.55
75985;DHT22;65033;44.660;37.758;2023-10-19T01:02:20;10.08;54.58
75985;DHT22;65033;44.660;37.758;2023-10-19T01:03:38;10.13;54.36
75985;DHT22;65033;44.660;37.758;2023-10-19T01:04:51;10.15;53.94
75985;DHT22;65033;44.660;37.758;2023-10-19T01:06:09;10.19;53.86
75985;DHT22;65033;44.660;37.758;2023-10-19T01:07:29;10.22;53.81
75985;DHT22;65033;44.660;37.758;2023-10-19T01:08:36;10.24;53.53
75985;DHT22;65033;44.660;37.758;2023-10-19T01:09:51;10.28;53.49
75985;DHT22;65033;44.660;37.758;2023-10-19T01:11:15;10.31;53.30
75985;DHT22;65033;44.660;37.758;2023-10-19T01:12:34;10.35;53.39
75985;DHT22;65033;44.660;37.758;2023-10-19T01:13:53;10.36;53.49
75985;DHT22;65033;44.660;37.758;2023-10-19T01:15:09;10.38;52.99
75985;DHT22;65033;44.660;37.758;2023-10-19T01:16:20;10.42;52.91
75985;DHT22;65033;44.660;37.758;2023-10-19T01:17:50;10.44;52.79
75985;DHT22;65033;44.660;37.758;2023-10-19T01:19:05;10.45;52.97
75985;DHT22;65033;44.660;37.758;2023-10-19T01:20:15;10.45;52.91
75985;DHT22;65033;44.660;37.758;2023-10-19T01:21:52;10.44;53.37
75985;DHT22;65033;44.660;37.758;2023-10-19T01:23:12;10.42;53.28
75985;DHT22;65033;44.660;37.758;2023-10-19T01:24:31;10.41;53.76
75985;DHT22;65033;44.660;37.758;2023-10-19T01:25:52;10.38;53.75
75985;DHT22;65033;44.660;37.758;2023-10-19T01:27:07;10.34;53.73
75985;DHT22;65033;44.660;37.758;2023-10-19T01:28:23;10.33;53.75
75985;DHT22;65033;44.660;37.758;2023-10-19T01:29:57;10.31;53.90
75985;DHT22;65033;44.660;37.758;2023-10-19T01:31:13;10.30;53.94
75985;DHT22;65033;44.660;37.758;2023-10-19T01:32:40;10.23;54.37
75985;DHT22;65033;44.660;37.758;2023-10-19T01:33:50;10.14;54.45
75985;DHT22;65033;44.660;37.758;2023-10-19T01:35:03;10.11;54.75
75985;DHT22;65033;44.660;37.758;2023-10-19T01:36:24;10.11;54.32
75985;DHT22;65033;44.660;37.758;2023-10-19T01:37:32;10.13;54.10
75985;DHT22;65033;44.660;37.758;2023-10-19T01:38:50;10.18;53.96
75985;DHT22;65033;44.660;37.758;2023-10-19T01:39:58;10.15;54.92
75985;DHT22;65033;44.660;37.758;2023-10-19T01:41:09;10.07;55.15
75985;DHT22;65033;44.660;37.758;2023-10-19T01:42:32;9.98;55.44
75985;DHT22;65033;44.660;37.758;2023-10-19T01:43:41;9.85;55.85
75985;DHT22;65033;44.660;37.758;2023-10-19T01:44:51;9.74;56.45
75985;DHT22;65033;44.660;37.758;2023-10-19T01:46:06;9.65;56.73
75985;DHT22;65033;44.660;37.758;2023-10-19T01:47:40;9.53;57.21
75985;DHT22;65033;44.660;37.758;2023-10-19T01:48:59;9.45;57.60
75985;DHT22;65033;44.660;37.758;2023-10-19T01:50:09;9.39;57.74
75985;DHT22;65033;44.660;37.758;2023-10-19T01:51:44;9.32;57.97
75985;DHT22;65033;44.660;37.758;2023-10-19T01:52:57;9.30;57.92
75985;DHT22;65033;44.660;37.758;2023-10-19T01:54:12;9.24;58.25
75985;DHT22;65033;44.660;37.758;2023-10-19T01:55:22;9.17;58.46
75985;DHT22;65033;44.660;37.758;2023-10-19T01:56:27;9.12;58.85
75985;DHT22;65033;44.660;37.758;2023-10-19T01:57:36;9.08;58.92
75985;DHT22;65033;44.660;37.758;2023-10-19T01:58:50;9.05;59.08
75985;DHT22;65033;44.660;37.758;2023-10-19T02:00:11;9.06;59.03
75985;DHT22;65033;44.660;37.758;2023-10-19T02:01:24;9.06;59.19
75985;DHT22;65033;44.660;37.758;2023-10-19T02:02:35;9.05;59.12
75985;DHT22;65033;44.660;37.758;2023-10-19T02:04:37;9.07;59.12
75985;DHT22;65033;44.660;37.758;2023-10-19T02:05:49;9.04;59.22
75985;DHT22;65033;44.660;37.758;2023-10-19T02:06:54;9.01;59.29
75985;DHT22;65033;44.660;37.758;2023-10-19T02:08:29;8.96;59.44
75985;DHT22;65033;44.660;37.758;2023-10-19T02:09:40;8.95;59.52
75985;DHT22;65033;44.660;37.758;2023-10-19T02:10:52;8.93;59.44
75985;DHT22;65033;44.660;37.758;2023-10-19T02:12:26;8.92;59.47
75985;DHT22;65033;44.660;37.758;2023-10-19T02:13:37;8.91;59.48
75985;DHT22;65033;44.660;37.758;2023-10-19T02:15:22;8.92;59.48
75985;DHT22;65033;44.660;37.758;2023-10-19T02:16:31;8.91;59.96
75985;DHT22;65033;44.660;37.758;2023-10-19T02:18:00;8.89;59.71
75985;DHT22;65033;44.660;37.758;2023-10-19T02:19:13;8.88;60.19
75985;DHT22;65033;44.660;37.758;2023-10-19T02:20:23;8.89;59.91
75985;DHT22;65033;44.660;37.758;2023-10-19T02:21:48;8.86;59.77
75985;DHT22;65033;44.660;37.758;2023-10-19T02:22:52;8.85;59.99
75985;DHT22;65033;44.660;37.758;2023-10-19T02:24:01;8.82;60.05
75985;DHT22;65033;44.660;37.758;2023-10-19T02:25:13;8.78;60.18
75985;DHT22;65033;44.660;37.758;2023-10-19T02:26:26;8.77;60.20
75985;DHT22;65033;44.660;37.758;2023-10-19T02:27:49;8.73;60.31
75985;DHT22;65033;44.660;37.758;2023-10-19T02:28:53;8.71;60.52
75985;DHT22;65033;44.660;37.758;2023-10-19T02:30:00;8.67;60.32
75985;DHT22;65033;44.660;37.758;2023-10-19T02:31:07;8.66;60.54
75985;DHT22;65033;44.660;37.758;2023-10-19T02:32:26;8.63;60.62
75985;DHT22;65033;44.660;37.758;2023-10-19T02:33:34;8.63;60.69
75985;DHT22;65033;44.660;37.758;2023-10-19T02:34:39;8.61;60.73
75985;DHT22;65033;44.660;37.758;2023-10-19T02:35:46;8.61;60.78
75985;DHT22;65033;44.660;37.758;2023-10-19T02:36:57;8.58;60.82
75985;DHT22;65033;44.660;37.758;2023-10-19T02:38:09;8.57;61.07
75985;DHT22;65033;44.660;37.758;2023-10-19T02:39:20;8.57;60.88
75985;DHT22;65033;44.660;37.758;2023-10-19T02:40:34;8.56;60.89
75985;DHT22;65033;44.660;37.758;2023-10-19T02:42:02;8.56;60.95
75985;DHT22;65033;44.660;37.758;2023-10-19T02:43:15;8.55;60.87
75985;DHT22;65033;44.660;37.758;2023-10-19T02:44:55;8.55;60.97
75985;DHT22;65033;44.660;37.758;2023-10-19T02:45:59;8.57;60.90
75985;DHT22;65033;44.660;37.758;2023-10-19T02:47:14;8.51;61.05
75985;DHT22;65033;44.660;37.758;2023-10-19T02:48:27;8.50;61.20
75985;DHT22;65033;44.660;37.758;2023-10-19T02:49:41;8.46;61.26
75985;DHT22;65033;44.660;37.758;2023-10-19T02:50:57;8.46;61.29
75985;DHT22;65033;44.660;37.758;2023-10-19T02:52:18;8.45;61.22
75985;DHT22;65033;44.660;37.758;2023-10-19T02:53:26;8.43;61.37
75985;DHT22;65033;44.660;37.758;2023-10-19T02:54:34;8.45;61.30
75985;DHT22;65033;44.660;37.758;2023-10-19T02:55:40;8.47;61.21
75985;DHT22;65033;44.660;37.758;2023-10-19T02:56:53;8.51;61.18
75985;DHT22;65033;44.660;37.758;2023-10-19T02:58:00;8.52;61.03
75985;DHT22;65033;44.660;37.758;2023-10-19T02:59:17;8.51;61.02
75985;DHT22;65033;44.660;37.758;2023-10-19T03:00:30;8.52;61.04
75985;DHT22;65033;44.660;37.758;2023-10-19T03:01:45;8.51;60.96
75985;DHT22;65033;44.660;37.758;2023-10-19T03:03:02;8.52;60.94
75985;DHT22;65033;44.660;37.758;2023-10-19T03:04:22;8.53;60.92
75985;DHT22;65033;44.660;37.758;2023-10-19T03:05:33;8.55;60.83
75985;DHT22;65033;44.660;37.758;2023-10-19T03:06:41;8.55;61.05
75985;DHT22;65033;44.660;37.758;2023-10-19T03:08:21;8.55;61.03
75985;DHT22;65033;44.660;37.758;2023-10-19T03:09:41;8.55;60.88
75985;DHT22;65033;44.660;37.758;2023-10-19T03:11:05;8.55;60.79
75985;DHT22;65033;44.660;37.758;2023-10-19T03:12:22;8.56;60.70
75985;DHT22;65033;44.660;37.758;2023-10-19T03:14:26;8.59;60.63
75985;DHT22;65033;44.660;37.758;2023-10-19T03:15:33;8.59;60.68
75985;DHT22;65033;44.660;37.758;2023-10-19T03:16:41;8.58;60.53
75985;DHT22;65033;44.660;37.758;2023-10-19T03:17:51;8.58;60.50
75985;DHT22;65033;44.660;37.758;2023-10-19T03:19:06;8.60;60.72
75985;DHT22;65033;44.660;37.758;2023-10-19T03:20:25;8.62;60.49
75985;DHT22;65033;44.660;37.758;2023-10-19T03:21:34;8.63;60.44
75985;DHT22;65033;44.660;37.758;2023-10-19T03:23:27;8.67;60.17
75985;DHT22;65033;44.660;37.758;2023-10-19T03:24:55;8.71;60.12
75985;DHT22;65033;44.660;37.758;2023-10-19T03:26:23;8.73;59.89
75985;DHT22;65033;44.660;37.758;2023-10-19T03:27:35;8.76;59.96
75985;DHT22;65033;44.660;37.758;2023-10-19T03:28:46;8.79;60.93
75985;DHT22;65033;44.660;37.758;2023-10-19T03:29:53;8.80;59.45
75985;DHT22;65033;44.660;37.758;2023-10-19T03:31:04;8.85;59.40
75985;DHT22;65033;44.660;37.758;2023-10-19T03:32:10;8.86;59.41
75985;DHT22;65033;44.660;37.758;2023-10-19T03:33:14;8.87;59.30
75985;DHT22;65033;44.660;37.758;2023-10-19T03:34:27;8.90;59.27
75985;DHT22;65033;44.660;37.758;2023-10-19T03:35:34;8.92;59.18
75985;DHT22;65033;44.660;37.758;2023-10-19T03:36:53;8.95;58.88
75985;DHT22;65033;44.660;37.758;2023-10-19T03:38:02;8.95;58.92
75985;DHT22;65033;44.660;37.758;2023-10-19T03:39:12;9.00;58.96
75985;DHT22;65033;44.660;37.758;2023-10-19T03:40:23;9.01;59.03
75985;DHT22;65033;44.660;37.758;2023-10-19T03:41:38;9.03;58.90
75985;DHT22;65033;44.660;37.758;2023-10-19T03:42:45;9.04;58.64
75985;DHT22;65033;44.660;37.758;2023-10-19T03:43:56;9.06;58.64
75985;DHT22;65033;44.660;37.758;2023-10-19T03:45:02;9.08;58.53
75985;DHT22;65033;44.660;37.758;2023-10-19T03:46:13;9.08;58.55
75985;DHT22;65033;44.660;37.758;2023-10-19T03:47:39;9.06;58.54
75985;DHT22;65033;44.660;37.758;2023-10-19T03:48:50;9.07;58.56
75985;DHT22;65033;44.660;37.758;2023-10-19T03:50:01;9.08;58.49
75985;DHT22;65033;44.660;37.758;2023-10-19T03:51:13;9.05;58.47
75985;DHT22;65033;44.660;37.758;2023-10-19T03:52:20;9.08;58.31
75985;DHT22;65033;44.660;37.758;2023-10-19T03:53:49;9.07;58.25
75985;DHT22;65033;44.660;37.758;2023-10-19T03:55:09;9.51;70.13
75985;DHT22;65033;44.660;37.758;2023-10-19T03:56:22;10.14;59.35
75985;DHT22;65033;44.660;37.758;2023-10-19T03:57:42;10.14;54.90
75985;DHT22;65033;44.660;37.758;2023-10-19T03:59:04;10.08;55.00
75985;DHT22;65033;44.660;37.758;2023-10-19T04:00:23;9.99;55.20
75985;DHT22;65033;44.660;37.758;2023-10-19T04:01:40;9.92;55.23
75985;DHT22;65033;44.660;37.758;2023-10-19T04:02:52;9.86;55.42
75985;DHT22;65033;44.660;37.758;2023-10-19T04:04:08;9.80;55.73
75985;DHT22;65033;44.660;37.758;2023-10-19T04:05:24;9.77;55.98
75985;DHT22;65033;44.660;37.758;2023-10-19T04:06:41;9.67;55.91
75985;DHT22;65033;44.660;37.758;2023-10-19T04:08:04;9.61;56.29
75985;DHT22;65033;44.660;37.758;2023-10-19T04:09:17;9.56;56.14
75985;DHT22;65033;44.660;37.758;2023-10-19T04:10:25;9.53;56.25
75985;DHT22;65033;44.660;37.758;2023-10-19T04:11:45;9.52;56.36
75985;DHT22;65033;44.660;37.758;2023-10-19T04:12:56;9.49;56.46
75985;DHT22;65033;44.660;37.758;2023-10-19T04:14:20;9.47;56.53
75985;DHT22;65033;44.660;37.758;2023-10-19T04:15:47;9.48;56.65
75985;DHT22;65033;44.660;37.758;2023-10-19T04:17:52;9.47;56.84
75985;DHT22;65033;44.660;37.758;2023-10-19T04:19:19;9.49;56.39
75985;DHT22;65033;44.660;37.758;2023-10-19T04:20:29;9.49;56.37
75985;DHT22;65033;44.660;37.758;2023-10-19T04:21:59;9.53;56.36
75985;DHT22;65033;44.660;37.758;2023-10-19T04:23:12;9.54;56.26
75985;DHT22;65033;44.660;37.758;2023-10-19T04:24:25;9.57;56.23
75985;DHT22;65033;44.660;37.758;2023-10-19T04:25:59;9.60;56.13
75985;DHT22;65033;44.660;37.758;2023-10-19T04:27:43;9.64;56.21
75985;DHT22;65033;44.660;37.758;2023-10-19T04:28:50;9.64;55.87
75985;DHT22;65033;44.660;37.758;2023-10-19T04:29:59;9.66;55.83
75985;DHT22;65033;44.660;37.758;2023-10-19T04:31:12;9.70;55.84
75985;DHT22;65033;44.660;37.758;2023-10-19T04:32:26;9.74;55.75
75985;DHT22;65033;44.660;37.758;2023-10-19T04:33:33;9.76;55.65
75985;DHT22;65033;44.660;37.758;2023-10-19T04:34:39;9.79;55.67
75985;DHT22;65033;44.660;37.758;2023-10-19T04:35:45;9.82;55.62
75985;DHT22;65033;44.660;37.758;2023-10-19T04:36:54;9.83;55.44
75985;DHT22;65033;44.660;37.758;2023-10-19T04:38:08;9.89;55.42
75985;DHT22;65033;44.660;37.758;2023-10-19T04:39:22;9.93;55.04
75985;DHT22;65033;44.660;37.758;2023-10-19T04:40:31;9.96;55.13
75985;DHT22;65033;44.660;37.758;2023-10-19T04:41:52;10.05;55.15
75985;DHT22;65033;44.660;37.758;2023-10-19T04:43:13;10.12;54.62
75985;DHT22;65033;44.660;37.758;2023-10-19T04:44:31;10.22;59.84
75985;DHT22;65033;44.660;37.758;2023-10-19T04:45:40;10.98;68.47
75985;DHT22;65033;44.660;37.758;2023-10-19T04:46:48;11.09;52.20
75985;DHT22;65033;44.660;37.758;2023-10-19T04:47:59;10.99;52.30
75985;DHT22;65033;44.660;37.758;2023-10-19T04:49:08;10.94;52.45
75985;DHT22;65033;44.660;37.758;2023-10-19T04:50:26;10.92;52.32
75985;DHT22;65033;44.660;37.758;2023-10-19T04:51:41;10.93;52.05
75985;DHT22;65033;44.660;37.758;2023-10-19T04:52:53;10.94;52.08
75985;DHT22;65033;44.660;37.758;2023-10-19T04:54:13;10.97;51.85
75985;DHT22;65033;44.660;37.758;2023-10-19T04:55:38;10.93;51.84
75985;DHT22;65033;44.660;37.758;2023-10-19T04:57:13;10.94;52.06
75985;DHT22;65033;44.660;37.758;2023-10-19T04:58:48;10.89;51.77
75985;DHT22;65033;44.660;37.758;2023-10-19T05:02:01;10.99;51.83
75985;DHT22;65033;44.660;37.758;2023-10-19T05:03:15;11.04;51.72
75985;DHT22;65033;44.660;37.758;2023-10-19T05:04:57;11.09;51.56
75985;DHT22;65033;44.660;37.758;2023-10-19T05:06:03;11.75;60.13
75985;DHT22;65033;44.660;37.758;2023-10-19T05:07:07;12.51;71.08
75985;DHT22;65033;44.660;37.758;2023-10-19T05:08:19;12.64;47.66
75985;DHT22;65033;44.660;37.758;2023-10-19T05:10:08;12.57;47.00
75985;DHT22;65033;44.660;37.758;2023-10-19T05:11:16;12.48;47.40
75985;DHT22;65033;44.660;37.758;2023-10-19T05:12:32;12.46;47.41
75985;DHT22;65033;44.660;37.758;2023-10-19T05:13:38;12.41;47.46
75985;DHT22;65033;44.660;37.758;2023-10-19T05:15:16;12.36;47.31
75985;DHT22;65033;44.660;37.758;2023-10-19T05:16:25;12.33;47.58
75985;DHT22;65033;44.660;37.758;2023-10-19T05:17:37;12.31;47.67
75985;DHT22;65033;44.660;37.758;2023-10-19T05:18:44;12.27;47.88
75985;DHT22;65033;44.660;37.758;2023-10-19T05:19:50;12.27;47.93
75985;DHT22;65033;44.660;37.758;2023-10-19T05:20:56;12.26;47.62
75985;DHT22;65033;44.660;37.758;2023-10-19T05:22:06;12.27;47.46
75985;DHT22;65033;44.660;37.758;2023-10-19T05:23:48;12.31;46.62
75985;DHT22;65033;44.660;37.758;2023-10-19T05:25:13;12.35;46.39
75985;DHT22;65033;44.660;37.758;2023-10-19T05:26:18;12.37;46.02
75985;DHT22;65033;44.660;37.758;2023-10-19T05:27:26;12.44;45.85
75985;DHT22;65033;44.660;37.758;2023-10-19T05:28:31;12.49;46.09
75985;DHT22;65033;44.660;37.758;2023-10-19T05:29:35;12.52;45.32
75985;DHT22;65033;44.660;37.758;2023-10-19T05:30:41;12.58;45.43
75985;DHT22;65033;44.660;37.758;2023-10-19T05:31:46;12.62;45.13
75985;DHT22;65033;44.660;37.758;2023-10-19T05:32:53;12.67;44.96
75985;DHT22;65033;44.660;37.758;2023-10-19T05:33:57;12.73;45.14
75985;DHT22;65033;44.660;37.758;2023-10-19T05:35:03;12.78;44.90
75985;DHT22;65033;44.660;37.758;2023-10-19T05:36:09;12.81;44.66
75985;DHT22;65033;44.660;37.758;2023-10-19T05:37:15;12.88;44.79
75985;DHT22;65033;44.660;37.758;2023-10-19T05:38:20;12.92;44.76
75985;DHT22;65033;44.660;37.758;2023-10-19T05:39:29;12.97;43.91
75985;DHT22;65033;44.660;37.758;2023-10-19T05:40:37;13.01;44.17
75985;DHT22;65033;44.660;37.758;2023-10-19T05:41:42;13.03;43.74
75985;DHT22;65033;44.660;37.758;2023-10-19T05:42:49;13.05;43.88
75985;DHT22;65033;44.660;37.758;2023-10-19T05:43:56;13.05;43.76
75985;DHT22;65033;44.660;37.758;2023-10-19T05:45:06;13.64;61.95
75985;DHT22;65033;44.660;37.758;2023-10-19T05:46:13;14.10;42.49
75985;DHT22;65033;44.660;37.758;2023-10-19T05:47:33;14.00;41.55
75985;DHT22;65033;44.660;37.758;2023-10-19T05:48:44;13.96;41.65
75985;DHT22;65033;44.660;37.758;2023-10-19T05:49:49;13.89;41.51
75985;DHT22;65033;44.660;37.758;2023-10-19T05:50:53;13.84;41.71
75985;DHT22;65033;44.660;37.758;2023-10-19T05:51:57;13.80;41.39
75985;DHT22;65033;44.660;37.758;2023-10-19T05:53:04;13.74;41.54
75985;DHT22;65033;44.660;37.758;2023-10-19T05:54:08;13.69;41.53
75985;DHT22;65033;44.660;37.758;2023-10-19T05:55:12;13.65;41.66
75985;DHT22;65033;44.660;37.758;2023-10-19T05:56:18;13.62;41.52
75985;DHT22;65033;44.660;37.758;2023-10-19T05:57:29;13.58;41.83
75985;DHT22;65033;44.660;37.758;2023-10-19T05:58:33;13.56;41.95
75985;DHT22;65033;44.660;37.758;2023-10-19T05:59:37;13.56;41.75
75985;DHT22;65033;44.660;37.758;2023-10-19T06:00:40;13.59;41.95
75985;DHT22;65033;44.660;37.758;2023-10-19T06:01:45;13.60;41.76
75985;DHT22;65033;44.660;37.758;2023-10-19T06:02:54;13.63;41.84
75985;DHT22;65033;44.660;37.758;2023-10-19T06:04:00;13.68;42.02
75985;DHT22;65033;44.660;37.758;2023-10-19T06:05:07;13.70;41.81
75985;DHT22;65033;44.660;37.758;2023-10-19T06:06:11;13.69;41.52
75985;DHT22;65033;44.660;37.758;2023-10-19T06:07:17;13.73;41.57
75985;DHT22;65033;44.660;37.758;2023-10-19T06:08:24;13.77;41.39
75985;DHT22;65033;44.660;37.758;2023-10-19T06:09:30;13.79;41.51
75985;DHT22;65033;44.660;37.758;2023-10-19T06:10:35;13.84;41.42
75985;DHT22;65033;44.660;37.758;2023-10-19T06:11:43;13.89;41.07
75985;DHT22;65033;44.660;37.758;2023-10-19T06:12:52;13.93;41.04
75985;DHT22;65033;44.660;37.758;2023-10-19T06:13:58;13.95;40.97
75985;DHT22;65033;44.660;37.758;2023-10-19T06:15:04;13.99;40.99
75985;DHT22;65033;44.660;37.758;2023-10-19T06:16:15;14.01;40.84
75985;DHT22;65033;44.660;37.758;2023-10-19T06:17:38;13.99;40.61
75985;DHT22;65033;44.660;37.758;2023-10-19T06:18:43;14.00;47.12
75985;DHT22;65033;44.660;37.758;2023-10-19T06:19:49;14.68;59.30
75985;DHT22;65033;44.660;37.758;2023-10-19T06:20:53;14.88;39.04
75985;DHT22;65033;44.660;37.758;2023-10-19T06:21:58;14.86;39.14
75985;DHT22;65033;44.660;37.758;2023-10-19T06:23:08;14.80;38.56
75985;DHT22;65033;44.660;37.758;2023-10-19T06:24:18;14.73;38.75
75985;DHT22;65033;44.660;37.758;2023-10-19T06:25:23;14.69;39.14
75985;DHT22;65033;44.660;37.758;2023-10-19T06:26:31;14.62;38.97
75985;DHT22;65033;44.660;37.758;2023-10-19T06:27:40;14.58;39.18
75985;DHT22;65033;44.660;37.758;2023-10-19T06:28:45;14.53;39.31
75985;DHT22;65033;44.660;37.758;2023-10-19T06:29:50;14.48;39.08
75985;DHT22;65033;44.660;37.758;2023-10-19T06:31:00;14.42;39.43
75985;DHT22;65033;44.660;37.758;2023-10-19T06:32:04;14.44;39.97
75985;DHT22;65033;44.660;37.758;2023-10-19T06:33:14;14.37;39.88
75985;DHT22;65033;44.660;37.758;2023-10-19T06:34:18;14.37;39.45
75985;DHT22;65033;44.660;37.758;2023-10-19T06:35:32;14.37;39.49
75985;DHT22;65033;44.660;37.758;2023-10-19T06:36:39;14.35;39.52
75985;DHT22;65033;44.660;37.758;2023-10-19T06:37:43;14.34;39.59
75985;DHT22;65033;44.660;37.758;2023-10-19T06:38:47;14.36;39.48
75985;DHT22;65033;44.660;37.758;2023-10-19T06:39:57;14.37;39.76
75985;DHT22;65033;44.660;37.758;2023-10-19T06:41:16;14.42;39.83
75985;DHT22;65033;44.660;37.758;2023-10-19T06:42:22;14.47;39.53
75985;DHT22;65033;44.660;37.758;2023-10-19T06:43:35;14.51;39.17
75985;DHT22;65033;44.660;37.758;2023-10-19T06:44:47;14.55;39.16
75985;DHT22;65033;44.660;37.758;2023-10-19T06:46:18;14.57;38.87
75985;DHT22;65033;44.660;37.758;2023-10-19T06:47:41;14.59;39.21
75985;DHT22;65033;44.660;37.758;2023-10-19T06:48:54;14.65;39.10
75985;DHT22;65033;44.660;37.758;2023-10-19T06:53:09;15.27;51.38
75985;DHT22;65033;44.660;37.758;2023-10-19T06:54:13;15.84;61.69
75985;DHT22;65033;44.660;37.758;2023-10-19T06:55:47;16.25;36.17
75985;DHT22;65033;44.660;37.758;2023-10-19T06:56:51;16.16;35.89
75985;DHT22;65033;44.660;37.758;2023-10-19T06:58:09;16.04;35.89
75985;DHT22;65033;44.660;37.758;2023-10-19T06:59:23;15.90;35.95
75985;DHT22;65033;44.660;37.758;2023-10-19T07:00:34;15.77;36.61
75985;DHT22;65033;44.660;37.758;2023-10-19T07:01:48;15.73;36.92
75985;DHT22;65033;44.660;37.758;2023-10-19T07:03:15;15.62;36.80
75985;DHT22;65033;44.660;37.758;2023-10-19T07:04:21;15.57;37.17
75985;DHT22;65033;44.660;37.758;2023-10-19T07:05:31;15.48;37.26
75985;DHT22;65033;44.660;37.758;2023-10-19T07:06:39;15.45;37.85
75985;DHT22;65033;44.660;37.758;2023-10-19T07:07:46;15.43;37.84
75985;DHT22;65033;44.660;37.758;2023-10-19T07:09:06;15.37;37.89
75985;DHT22;65033;44.660;37.758;2023-10-19T07:10:17;15.36;38.40
75985;DHT22;65033;44.660;37.758;2023-10-19T07:11:31;15.37;38.07
75985;DHT22;65033;44.660;37.758;2023-10-19T07:12:37;15.39;37.77
75985;DHT22;65033;44.660;37.758;2023-10-19T07:13:42;15.39;38.24
75985;DHT22;65033;44.660;37.758;2023-10-19T07:14:47;15.40;38.20
75985;DHT22;65033;44.660;37.758;2023-10-19T07:15:52;15.44;37.79
75985;DHT22;65033;44.660;37.758;2023-10-19T07:16:58;15.46;37.82
75985;DHT22;65033;44.660;37.758;2023-10-19T07:18:05;15.49;38.24
75985;DHT22;65033;44.660;37.758;2023-10-19T07:19:12;15.54;38.57
75985;DHT22;65033;44.660;37.758;2023-10-19T07:20:18;15.53;38.50
75985;DHT22;65033;44.660;37.758;2023-10-19T07:21:46;15.56;37.82
75985;DHT22;65033;44.660;37.758;2023-10-19T07:22:53;15.56;37.73
75985;DHT22;65033;44.660;37.758;2023-10-19T07:23:57;15.56;37.67
75985;DHT22;65033;44.660;37.758;2023-10-19T07:25:35;15.57;37.58
75985;DHT22;65033;44.660;37.758;2023-10-19T07:26:48;15.56;37.99
75985;DHT22;65033;44.660;37.758;2023-10-19T07:28:04;15.55;37.22
75985;DHT22;65033;44.660;37.758;2023-10-19T07:29:11;15.55;38.02
75985;DHT22;65033;44.660;37.758;2023-10-19T07:30:39;15.62;37.79
75985;DHT22;65033;44.660;37.758;2023-10-19T07:31:55;15.63;38.11
75985;DHT22;65033;44.660;37.758;2023-10-19T07:33:02;15.65;37.44
75985;DHT22;65033;44.660;37.758;2023-10-19T07:34:14;15.65;37.76
75985;DHT22;65033;44.660;37.758;2023-10-19T07:35:22;15.69;37.25
75985;DHT22;65033;44.660;37.758;2023-10-19T07:36:31;15.69;37.20
75985;DHT22;65033;44.660;37.758;2023-10-19T07:37:49;15.70;37.27
75985;DHT22;65033;44.660;37.758;2023-10-19T07:39:05;15.72;37.01
75985;DHT22;65033;44.660;37.758;2023-10-19T07:40:22;15.73;37.22
75985;DHT22;65033;44.660;37.758;2023-10-19T07:41:46;15.75;37.09
75985;DHT22;65033;44.660;37.758;2023-10-19T07:42:57;15.81;37.27
75985;DHT22;65033;44.660;37.758;2023-10-19T07:44:04;15.80;37.30
75985;DHT22;65033;44.660;37.758;2023-10-19T07:45:12;15.84;37.40
75985;DHT22;65033;44.660;37.758;2023-10-19T07:46:22;15.88;37.49
75985;DHT22;65033;44.660;37.758;2023-10-19T07:47:32;15.90;36.92
75985;DHT22;65033;44.660;37.758;2023-10-19T07:48:51;15.93;36.47
75985;DHT22;65033;44.660;37.758;2023-10-19T07:49:58;15.93;36.65